This is the latest recevied weather packets stored in our database for station/object KQ4WWD. If no packets are shown the sender has not sent any weather packets the latest 1 day(s).
| Time | Temp. | Humidity | Pressure | Rain* | Wind** | Luminosity | Snow |
|---|---|---|---|---|---|---|---|
| 1778088439 | 32.78° C | 51% | 1016.1 hPa | 0 mm | - | 688 W/m² | - |
| 1778086319 | 32.22° C | 53% | 1016.5 hPa | 0 mm | - | 719 W/m² | - |
| 1778086016 | 32.22° C | 53% | 1016.5 hPa | 0 mm | - | 708 W/m² | - |
| 1778084499 | 31.67° C | 54% | 1016.9 hPa | 0 mm | - | 679 W/m² | - |
| 1778084196 | 30.56° C | 56% | 1016.7 hPa | 0 mm | - | 600 W/m² | - |
| 1778083287 | 31.11° C | 57% | 1017.2 hPa | 0 mm | - | 702 W/m² | - |
| 1778082682 | 30° C | 60% | 1016.9 hPa | 0 mm | - | 660 W/m² | - |
| 1778081539 | 30.56° C | 59% | 1017.1 hPa | 0 mm | - | 671 W/m² | - |
| 1778078207 | 28.33° C | 68% | 1016.8 hPa | 0 mm | - | 595 W/m² | - |
| 1778077905 | 27.78° C | 71% | 1016.8 hPa | 0 mm | - | 593 W/m² | - |
| 1778077301 | 27.78° C | 72% | 1016.9 hPa | 0 mm | - | 621 W/m² | - |
| 1778076091 | 27.22° C | 75% | 1017 hPa | 0 mm | - | 502 W/m² | - |
| 1778075484 | 26.11° C | 78% | 1016.8 hPa | 0 mm | - | 507 W/m² | - |
| 1778074876 | 26.11° C | 79% | 1017 hPa | 0 mm | - | 423 W/m² | - |
| 1778074574 | 25.56° C | 80% | 1016.6 hPa | 0 mm | - | 351 W/m² | - |
| 1778073665 | 24.44° C | 83% | 1016.8 hPa | 0 mm | - | 314 W/m² | - |
| 1778072453 | 23.89° C | 84% | 1016.6 hPa | 0 mm | - | 217 W/m² | - |
| 1778072151 | 23.89° C | 84% | 1016.3 hPa | 0 mm | - | 219 W/m² | - |
| 1778071546 | 23.33° C | 85% | 1016.6 hPa | 0 mm | - | 228 W/m² | - |
| 1778066705 | 19.44° C | 90% | 1015.9 hPa | 0 mm | - | 37 W/m² | - |
| 1778065797 | 18.89° C | 91% | 1016 hPa | 0 mm | - | 21 W/m² | - |
| 1778065495 | 18.89° C | 90% | 1015.8 hPa | 0 mm | - | 16 W/m² | - |
| 1778063981 | 18.89° C | 91% | 1015.5 hPa | 0 mm | - | 0 W/m² | - |
| 1778063678 | 18.89° C | 91% | 1015.7 hPa | 0 mm | - | 0 W/m² | - |
| 1778063375 | 18.89° C | 91% | 1015.5 hPa | 0 mm | - | 0 W/m² | - |
* Rain latest hour (hover to see other rain measurements)
** Current wind speed in m/s (hover to see current wind gust speed)